Time;durP1;ratioP1;P1;durP2;ratioP2;P2;SDS_P1;SDS_P2;PMS_P1;PMS_P2;Temp;Humidity;BMP_temperature;BMP_pressure;BME280_temperature;BME280_humidity;BME280_pressure;Samples;Min_cycle;Max_cycle;Signal;HPM_P1;HPM_P2
2022/04/08 00:02:17;;;;;;;3.10;1.70;;;;;;;;;;4448572;32;20250;-54
2022/04/08 00:04:44;;;;;;;5.27;1.33;;;;;;;;;;4446825;32;20342;-53
2022/04/08 00:07:09;;;;;;;1.77;1.30;;;;;;;;;;4448308;32;20224;-54
2022/04/08 00:09:34;;;;;;;1.43;0.93;;;;;;;;;;4448897;32;20326;-55
2022/04/08 00:12:00;;;;;;;3.47;1.00;;;;;;;;;;4448345;32;20299;-55
2022/04/08 00:14:25;;;;;;;1.63;1.17;;;;;;;;;;4448535;32;20310;-55
2022/04/08 00:16:51;;;;;;;2.57;1.40;;;;;;;;;;4448437;32;20217;-55
2022/04/08 00:19:16;;;;;;;2.13;1.20;;;;;;;;;;4448477;32;20264;-55
2022/04/08 00:21:42;;;;;;;1.07;0.80;;;;;;;;;;4448554;32;20665;-54
2022/04/08 00:24:07;;;;;;;1.40;1.10;;;;;;;;;;4448616;32;20232;-54
2022/04/08 00:26:33;;;;;;;2.80;1.40;;;;;;;;;;4448438;32;20271;-56
2022/04/08 00:28:59;;;;;;;1.00;0.90;;;;;;;;;;4448035;32;20251;-55
2022/04/08 00:31:25;;;;;;;5.40;1.00;;;;;;;;;;4448158;32;20305;-55
2022/04/08 00:33:50;;;;;;;1.30;1.03;;;;;;;;;;4447217;32;20695;-55
2022/04/08 00:36:15;;;;;;;3.23;0.80;;;;;;;;;;4447985;32;20288;-55
2022/04/08 00:38:41;;;;;;;2.13;1.17;;;;;;;;;;4448138;32;20236;-57
2022/04/08 00:41:06;;;;;;;3.13;1.20;;;;;;;;;;4446806;32;20300;-56
2022/04/08 00:43:36;;;;;;;1.43;1.00;;;;;;;;;;4449125;32;20330;-55
2022/04/08 00:46:04;;;;;;;1.07;0.80;;;;;;;;;;4447787;32;20330;-54
2022/04/08 00:48:30;;;;;;;2.10;1.20;;;;;;;;;;4459030;32;20605;-55
2022/04/08 00:50:58;;;;;;;1.00;0.90;;;;;;;;;;4463360;32;20313;-56
2022/04/08 00:53:24;;;;;;;0.77;0.73;;;;;;;;;;4463729;32;20243;-55
2022/04/08 00:55:50;;;;;;;1.03;0.83;;;;;;;;;;4463331;32;20412;-55
2022/04/08 00:58:16;;;;;;;1.33;1.10;;;;;;;;;;4457116;32;20318;-54
2022/04/08 01:00:42;;;;;;;3.97;0.80;;;;;;;;;;4447170;32;20303;-56
2022/04/08 01:03:08;;;;;;;3.53;1.03;;;;;;;;;;4447256;32;20233;-55
2022/04/08 01:05:34;;;;;;;3.43;1.10;;;;;;;;;;4452212;32;20781;-56
2022/04/08 01:08:00;;;;;;;1.33;0.90;;;;;;;;;;4447536;32;20284;-55
2022/04/08 01:10:26;;;;;;;2.20;1.10;;;;;;;;;;4447660;32;20279;-56
2022/04/08 01:12:51;;;;;;;2.53;1.13;;;;;;;;;;4447208;32;20224;-55
2022/04/08 01:15:19;;;;;;;3.70;1.73;;;;;;;;;;4447229;32;20371;-55
2022/04/08 01:17:44;;;;;;;9.60;2.50;;;;;;;;;;4447358;32;20669;-55
2022/04/08 01:20:10;;;;;;;5.87;2.07;;;;;;;;;;4447546;32;20391;-56
2022/04/08 01:22:36;;;;;;;2.97;1.20;;;;;;;;;;4447524;32;20700;-54
2022/04/08 01:25:03;;;;;;;5.77;1.87;;;;;;;;;;4446319;32;20368;-55
2022/04/08 01:27:29;;;;;;;4.70;1.60;;;;;;;;;;4446995;32;20296;-54
2022/04/08 01:29:55;;;;;;;2.30;1.27;;;;;;;;;;4447509;32;20292;-55
2022/04/08 01:32:21;;;;;;;2.70;1.27;;;;;;;;;;4451822;32;20715;-55
2022/04/08 01:34:49;;;;;;;1.63;0.87;;;;;;;;;;4462988;32;20275;-56
2022/04/08 01:37:15;;;;;;;1.83;1.30;;;;;;;;;;4461438;32;20235;-54
2022/04/08 01:39:41;;;;;;;5.50;0.90;;;;;;;;;;4458270;32;20387;-54
2022/04/08 01:42:07;;;;;;;3.27;1.30;;;;;;;;;;4446810;32;20282;-54
2022/04/08 01:44:33;;;;;;;1.63;1.00;;;;;;;;;;4447547;32;20306;-55
2022/04/08 01:46:58;;;;;;;1.23;1.00;;;;;;;;;;4448701;32;20204;-53
2022/04/08 01:49:24;;;;;;;4.93;1.40;;;;;;;;;;4447158;32;20278;-54
2022/04/08 01:51:49;;;;;;;3.23;1.13;;;;;;;;;;4447562;32;20668;-54
2022/04/08 01:54:15;;;;;;;1.77;1.30;;;;;;;;;;4447447;32;20332;-56
2022/04/08 01:56:40;;;;;;;1.93;0.90;;;;;;;;;;4447317;32;20300;-54
2022/04/08 01:59:06;;;;;;;5.13;1.00;;;;;;;;;;4447130;32;20692;-56
2022/04/08 02:01:31;;;;;;;2.00;0.80;;;;;;;;;;4447505;32;20696;-55
2022/04/08 02:03:56;;;;;;;2.60;1.10;;;;;;;;;;4445985;32;20558;-55
2022/04/08 02:06:22;;;;;;;1.20;0.90;;;;;;;;;;4454887;32;20468;-56
2022/04/08 02:08:49;;;;;;;1.63;1.03;;;;;;;;;;4462701;32;20257;-54
2022/04/08 02:11:15;;;;;;;1.70;1.13;;;;;;;;;;4462685;32;20318;-55
2022/04/08 02:13:41;;;;;;;1.20;0.97;;;;;;;;;;4462803;32;20809;-55
2022/04/08 02:16:06;;;;;;;1.53;0.90;;;;;;;;;;4463210;32;20761;-55
2022/04/08 02:18:32;;;;;;;0.70;0.70;;;;;;;;;;4465818;32;20631;-55
2022/04/08 02:20:57;;;;;;;1.90;0.87;;;;;;;;;;4466115;32;20718;-55
2022/04/08 02:23:23;;;;;;;2.50;0.97;;;;;;;;;;4464645;32;20306;-54
2022/04/08 02:25:48;;;;;;;1.37;1.20;;;;;;;;;;4449998;32;20677;-55
2022/04/08 02:28:14;;;;;;;3.43;1.43;;;;;;;;;;4449774;32;20232;-55
2022/04/08 02:30:39;;;;;;;1.13;1.03;;;;;;;;;;4450579;32;20310;-53
2022/04/08 02:33:05;;;;;;;10.17;3.97;;;;;;;;;;4448815;32;20311;-53
2022/04/08 02:35:31;;;;;;;5.40;2.60;;;;;;;;;;4450155;32;20310;-54
2022/04/08 02:37:57;;;;;;;9.37;1.77;;;;;;;;;;4449773;32;20229;-54
2022/04/08 02:40:22;;;;;;;2.37;1.63;;;;;;;;;;4450146;32;20324;-54
2022/04/08 02:42:48;;;;;;;1.57;1.27;;;;;;;;;;4450001;32;20254;-54
2022/04/08 02:45:13;;;;;;;3.33;1.53;;;;;;;;;;4449993;32;20300;-55
2022/04/08 02:47:40;;;;;;;1.67;1.30;;;;;;;;;;4451594;32;20295;-54
2022/04/08 02:50:06;;;;;;;2.87;2.00;;;;;;;;;;4436016;32;20766;-55
2022/04/08 02:52:31;;;;;;;5.23;3.70;;;;;;;;;;4449727;32;20300;-54
2022/04/08 02:54:56;;;;;;;13.23;4.50;;;;;;;;;;4435566;32;20522;-54
2022/04/08 02:57:22;;;;;;;8.50;4.47;;;;;;;;;;4449367;32;20205;-54
2022/04/08 02:59:50;;;;;;;8.47;3.70;;;;;;;;;;4449604;32;20606;-54
2022/04/08 03:02:15;;;;;;;6.53;4.20;;;;;;;;;;4449410;32;20572;-54
2022/04/08 03:04:41;;;;;;;10.73;3.23;;;;;;;;;;4449876;32;20275;-53
2022/04/08 03:07:06;;;;;;;6.93;2.80;;;;;;;;;;4457146;32;20262;-55
2022/04/08 03:09:32;;;;;;;14.53;3.40;;;;;;;;;;4464918;32;20275;-54
2022/04/08 03:11:57;;;;;;;8.53;4.47;;;;;;;;;;4463716;32;20252;-56
2022/04/08 03:14:23;;;;;;;9.07;4.10;;;;;;;;;;4464908;32;20262;-54
2022/04/08 03:16:48;;;;;;;6.20;3.20;;;;;;;;;;4465011;32;20235;-53
2022/04/08 03:19:13;;;;;;;7.03;3.20;;;;;;;;;;4465020;32;20227;-53
2022/04/08 03:21:39;;;;;;;7.73;3.97;;;;;;;;;;4463682;32;20239;-54
2022/04/08 03:24:05;;;;;;;10.27;4.57;;;;;;;;;;4459317;32;20270;-55
2022/04/08 03:26:30;;;;;;;18.03;4.13;;;;;;;;;;4447515;32;20296;-54
2022/04/08 03:28:56;;;;;;;10.53;5.30;;;;;;;;;;4449366;32;20647;-56
2022/04/08 03:31:21;;;;;;;7.37;4.67;;;;;;;;;;4449039;32;20274;-54
2022/04/08 03:33:47;;;;;;;11.50;4.47;;;;;;;;;;4449891;32;20228;-54
2022/04/08 03:36:12;;;;;;;6.60;4.23;;;;;;;;;;4449289;32;20680;-53
2022/04/08 03:38:37;;;;;;;9.33;4.23;;;;;;;;;;4448902;32;20224;-54
2022/04/08 03:41:03;;;;;;;10.30;7.10;;;;;;;;;;4448876;32;20647;-54
2022/04/08 03:43:28;;;;;;;15.07;6.17;;;;;;;;;;4447714;32;20761;-55
2022/04/08 03:45:54;;;;;;;8.77;5.20;;;;;;;;;;4449133;32;20321;-55
2022/04/08 03:48:19;;;;;;;10.23;5.90;;;;;;;;;;4447092;32;20297;-55
2022/04/08 03:50:45;;;;;;;12.07;5.80;;;;;;;;;;4447810;32;20386;-55
2022/04/08 03:53:12;;;;;;;12.20;5.43;;;;;;;;;;4448788;32;20374;-55
2022/04/08 03:55:41;;;;;;;8.60;4.73;;;;;;;;;;4448542;32;20254;-55
2022/04/08 03:58:09;;;;;;;11.67;6.67;;;;;;;;;;4448755;32;20336;-55
2022/04/08 04:00:35;;;;;;;15.60;7.70;;;;;;;;;;4463386;32;20212;-56
2022/04/08 04:03:00;;;;;;;19.03;6.73;;;;;;;;;;4462932;32;20236;-54
2022/04/08 04:05:26;;;;;;;12.93;7.07;;;;;;;;;;4456331;32;20371;-54
2022/04/08 04:07:51;;;;;;;10.93;6.30;;;;;;;;;;4448374;32;20268;-54
2022/04/08 04:10:17;;;;;;;13.63;7.43;;;;;;;;;;4448540;32;20355;-57
2022/04/08 04:12:42;;;;;;;21.47;8.47;;;;;;;;;;4448431;32;20266;-55
2022/04/08 04:15:09;;;;;;;20.50;9.13;;;;;;;;;;4447447;32;20287;-56
2022/04/08 04:17:35;;;;;;;10.63;7.17;;;;;;;;;;4448187;32;20270;-55
2022/04/08 04:20:01;;;;;;;14.77;8.47;;;;;;;;;;4448992;32;20347;-54
2022/04/08 04:22:26;;;;;;;18.70;9.87;;;;;;;;;;4447078;32;20286;-54
2022/04/08 04:24:52;;;;;;;14.60;8.00;;;;;;;;;;4458880;32;20307;-56
2022/04/08 04:27:17;;;;;;;20.37;9.73;;;;;;;;;;4463530;32;20216;-55
2022/04/08 04:29:42;;;;;;;16.00;8.70;;;;;;;;;;4452760;32;20377;-54
2022/04/08 04:32:08;;;;;;;15.60;8.43;;;;;;;;;;4448023;32;20239;-54
2022/04/08 04:34:36;;;;;;;13.83;8.90;;;;;;;;;;4448315;32;20291;-54
2022/04/08 04:37:02;;;;;;;14.77;8.93;;;;;;;;;;4448435;32;20366;-55
2022/04/08 04:39:28;;;;;;;20.77;10.13;;;;;;;;;;4447380;32;20367;-55
2022/04/08 04:41:53;;;;;;;17.83;9.27;;;;;;;;;;4448131;32;20577;-53
2022/04/08 04:44:19;;;;;;;13.80;8.07;;;;;;;;;;4448417;32;20247;-53
2022/04/08 04:46:44;;;;;;;12.33;7.60;;;;;;;;;;4449999;32;20259;-55
2022/04/08 04:49:10;;;;;;;16.50;10.53;;;;;;;;;;4448021;32;20363;-54
2022/04/08 04:51:36;;;;;;;12.97;8.50;;;;;;;;;;4448207;32;20208;-54
2022/04/08 04:54:02;;;;;;;17.83;7.63;;;;;;;;;;4447826;32;20497;-54
2022/04/08 04:56:27;;;;;;;13.33;7.63;;;;;;;;;;4447791;32;20660;-53
2022/04/08 04:58:53;;;;;;;13.47;8.23;;;;;;;;;;4448190;32;20224;-54
2022/04/08 05:01:19;;;;;;;15.70;7.07;;;;;;;;;;4447816;32;20238;-54
2022/04/08 05:03:44;;;;;;;22.00;9.83;;;;;;;;;;4447694;32;20251;-54
2022/04/08 05:06:09;;;;;;;17.13;7.97;;;;;;;;;;4455047;32;20329;-53
2022/04/08 05:08:35;;;;;;;14.60;8.63;;;;;;;;;;4463619;32;20232;-54
2022/04/08 05:11:00;;;;;;;16.03;7.47;;;;;;;;;;4463745;32;20298;-54
2022/04/08 05:13:26;;;;;;;27.50;12.73;;;;;;;;;;4462241;32;20327;-55
2022/04/08 05:15:51;;;;;;;23.33;11.50;;;;;;;;;;4463787;32;20315;-54
2022/04/08 05:18:17;;;;;;;15.90;9.60;;;;;;;;;;4463236;32;20270;-54
2022/04/08 05:20:42;;;;;;;25.27;12.60;;;;;;;;;;4463538;32;20683;-55
2022/04/08 05:23:08;;;;;;;19.73;9.37;;;;;;;;;;4462432;32;20397;-55
2022/04/08 05:25:34;;;;;;;13.57;9.00;;;;;;;;;;4446727;32;20440;-54
2022/04/08 05:27:59;;;;;;;15.73;9.40;;;;;;;;;;4447657;32;20615;-53
2022/04/08 05:30:25;;;;;;;17.37;11.20;;;;;;;;;;4447561;32;20327;-53
2022/04/08 05:32:50;;;;;;;23.50;11.40;;;;;;;;;;4447481;32;20486;-54
2022/04/08 05:35:17;;;;;;;18.87;12.13;;;;;;;;;;4449250;32;20325;-54
2022/04/08 05:37:48;;;;;;;23.60;11.60;;;;;;;;;;4454157;32;20530;-54
2022/04/08 05:40:15;;;;;;;12.43;9.10;;;;;;;;;;4447113;32;20200;-54
2022/04/08 05:42:44;;;;;;;18.37;10.07;;;;;;;;;;4446662;32;20577;-54
2022/04/08 05:45:11;;;;;;;26.43;13.10;;;;;;;;;;4459780;32;20243;-55
2022/04/08 05:47:38;;;;;;;22.70;13.17;;;;;;;;;;4454021;32;20216;-54
2022/04/08 05:50:04;;;;;;;21.70;12.23;;;;;;;;;;4445995;32;20549;-54
2022/04/08 05:52:30;;;;;;;22.20;13.23;;;;;;;;;;4446006;32;20324;-54
2022/04/08 05:54:55;;;;;;;14.33;9.67;;;;;;;;;;4446339;32;20744;-55
2022/04/08 05:57:21;;;;;;;20.80;9.83;;;;;;;;;;4446091;32;20659;-53
2022/04/08 05:59:47;;;;;;;21.23;11.53;;;;;;;;;;4446002;32;20319;-54
2022/04/08 06:02:13;;;;;;;18.37;11.67;;;;;;;;;;4447208;32;20213;-53
2022/04/08 06:04:38;;;;;;;21.27;10.50;;;;;;;;;;4449969;32;20413;-54
2022/04/08 06:07:04;;;;;;;16.57;9.70;;;;;;;;;;4456419;32;20601;-54
2022/04/08 06:09:29;;;;;;;11.40;7.50;;;;;;;;;;4462627;32;20299;-55
2022/04/08 06:11:55;;;;;;;12.73;6.30;;;;;;;;;;4462779;32;20280;-54
2022/04/08 06:14:20;;;;;;;11.73;6.50;;;;;;;;;;4457410;32;20307;-54
2022/04/08 06:16:46;;;;;;;16.60;8.60;;;;;;;;;;4451764;32;20259;-53
2022/04/08 06:19:11;;;;;;;28.57;11.83;;;;;;;;;;4447083;32;20288;-54
2022/04/08 06:21:37;;;;;;;23.20;11.93;;;;;;;;;;4449923;32;20236;-55
2022/04/08 06:24:02;;;;;;;27.33;12.90;;;;;;;;;;4451905;32;20248;-54
2022/04/08 06:26:28;;;;;;;23.93;11.53;;;;;;;;;;4462501;32;20265;-54
2022/04/08 06:28:54;;;;;;;17.50;10.73;;;;;;;;;;4461550;32;20264;-54
2022/04/08 06:31:19;;;;;;;20.60;10.13;;;;;;;;;;4462472;32;20256;-54
2022/04/08 06:33:44;;;;;;;14.80;9.57;;;;;;;;;;4462263;32;20422;-54
2022/04/08 06:36:10;;;;;;;18.57;9.70;;;;;;;;;;4463058;32;20363;-53
2022/04/08 06:38:35;;;;;;;14.63;9.13;;;;;;;;;;4462585;32;20304;-54
2022/04/08 06:41:01;;;;;;;14.27;5.30;;;;;;;;;;4462612;32;20332;-54
2022/04/08 06:43:26;;;;;;;8.03;4.73;;;;;;;;;;4462622;32;20526;-54
2022/04/08 06:45:52;;;;;;;6.30;4.10;;;;;;;;;;4462123;32;20279;-54
2022/04/08 06:48:17;;;;;;;9.53;5.77;;;;;;;;;;4459760;32;20318;-54
2022/04/08 06:50:42;;;;;;;8.50;4.27;;;;;;;;;;4462141;32;20310;-54
2022/04/08 06:53:08;;;;;;;11.87;4.07;;;;;;;;;;4462109;32;20649;-54
2022/04/08 06:55:33;;;;;;;10.83;4.90;;;;;;;;;;4454724;32;20243;-53
2022/04/08 06:58:03;;;;;;;7.10;3.17;;;;;;;;;;4453666;32;20308;-54
2022/04/08 07:00:31;;;;;;;5.70;3.37;;;;;;;;;;4457349;32;20220;-54
2022/04/08 07:02:57;;;;;;;22.10;11.50;;;;;;;;;;4458334;32;20256;-54
2022/04/08 07:05:25;;;;;;;11.33;5.33;;;;;;;;;;4447842;32;20789;-56
2022/04/08 07:07:51;;;;;;;15.37;8.17;;;;;;;;;;4449095;32;20588;-55
2022/04/08 07:10:17;;;;;;;11.50;4.97;;;;;;;;;;4448974;32;20311;-56
2022/04/08 07:12:42;;;;;;;6.30;4.20;;;;;;;;;;4456085;32;20236;-55
2022/04/08 07:15:08;;;;;;;3.50;2.37;;;;;;;;;;4464845;32;20286;-55
2022/04/08 07:17:35;;;;;;;2.33;1.53;;;;;;;;;;4457665;32;20384;-55
2022/04/08 07:20:01;;;;;;;3.30;2.00;;;;;;;;;;4449085;32;20298;-55
2022/04/08 07:22:27;;;;;;;9.23;5.17;;;;;;;;;;4447469;32;20529;-56
2022/04/08 07:24:54;;;;;;;2.87;1.77;;;;;;;;;;4459635;32;20282;-55
2022/04/08 07:27:20;;;;;;;8.97;2.20;;;;;;;;;;4464263;32;20196;-54
2022/04/08 07:29:46;;;;;;;7.33;3.17;;;;;;;;;;4457657;32;20594;-55
2022/04/08 07:32:12;;;;;;;2.90;1.57;;;;;;;;;;4448626;32;20226;-54
2022/04/08 07:34:38;;;;;;;4.53;1.97;;;;;;;;;;4447724;32;20435;-56
2022/04/08 07:37:05;;;;;;;3.27;1.93;;;;;;;;;;4448589;32;20228;-54
2022/04/08 07:39:31;;;;;;;12.50;2.40;;;;;;;;;;4448485;32;20406;-55
2022/04/08 07:41:56;;;;;;;6.40;2.10;;;;;;;;;;4447540;32;20568;-55
2022/04/08 07:44:22;;;;;;;6.37;2.30;;;;;;;;;;4455373;32;20417;-55
2022/04/08 07:46:48;;;;;;;8.50;2.20;;;;;;;;;;4462012;32;20333;-56
2022/04/08 07:49:13;;;;;;;4.33;2.80;;;;;;;;;;4463252;32;20274;-56
2022/04/08 07:51:38;;;;;;;6.93;2.83;;;;;;;;;;4464232;32;20197;-56
2022/04/08 07:54:04;;;;;;;6.00;3.67;;;;;;;;;;4463618;32;20267;-56
2022/04/08 07:56:33;;;;;;;6.70;3.20;;;;;;;;;;4463816;32;20564;-55
2022/04/08 07:58:58;;;;;;;7.30;3.50;;;;;;;;;;4459549;32;20271;-55
2022/04/08 08:01:24;;;;;;;3.17;2.70;;;;;;;;;;4447711;32;20240;-55
2022/04/08 08:03:49;;;;;;;5.50;3.10;;;;;;;;;;4447834;32;20632;-55
2022/04/08 08:06:15;;;;;;;10.57;3.42;;;;;;;;;;4449790;32;20774;-54
2022/04/08 08:08:41;;;;;;;5.20;2.87;;;;;;;;;;4462914;32;20338;-54
2022/04/08 08:11:11;;;;;;;5.97;2.58;;;;;;;;;;4464230;32;20458;-54
2022/04/08 08:13:38;;;;;;;3.62;2.60;;;;;;;;;;4457158;32;20233;-54
2022/04/08 08:16:04;;;;;;;4.07;2.87;;;;;;;;;;4448180;32;20228;-54
2022/04/08 08:18:29;;;;;;;8.07;4.47;;;;;;;;;;4448565;32;20648;-54
2022/04/08 08:20:55;;;;;;;4.50;2.33;;;;;;;;;;4448254;32;20349;-54
2022/04/08 08:23:20;;;;;;;6.68;3.22;;;;;;;;;;4455090;32;20382;-55
2022/04/08 08:25:46;;;;;;;8.50;3.28;;;;;;;;;;4448649;32;20286;-55
2022/04/08 08:28:11;;;;;;;7.10;3.03;;;;;;;;;;4448369;32;20258;-55
2022/04/08 08:30:38;;;;;;;9.93;4.03;;;;;;;;;;4448273;32;20712;-59
2022/04/08 08:33:05;;;;;;;8.73;4.28;;;;;;;;;;4448345;32;20270;-55
2022/04/08 08:35:32;;;;;;;11.80;3.37;;;;;;;;;;4448519;32;20352;-55
2022/04/08 08:37:58;;;;;;;6.78;2.80;;;;;;;;;;4447517;32;20338;-53
2022/04/08 08:40:24;;;;;;;3.37;2.03;;;;;;;;;;4447434;32;20326;-55
2022/04/08 08:42:49;;;;;;;9.10;2.08;;;;;;;;;;4447734;32;20264;-54
2022/04/08 08:45:16;;;;;;;2.67;2.08;;;;;;;;;;4447826;32;20294;-54
2022/04/08 08:47:49;;;;;;;7.07;2.05;;;;;;;;;;4453806;32;20337;-54
2022/04/08 08:50:18;;;;;;;3.78;1.75;;;;;;;;;;4463946;32;20200;-55
2022/04/08 08:52:48;;;;;;;3.70;1.65;;;;;;;;;;4463437;32;20232;-55
2022/04/08 08:55:13;;;;;;;2.35;1.62;;;;;;;;;;4458952;32;20232;-55
2022/04/08 08:57:39;;;;;;;7.55;2.15;;;;;;;;;;4447879;32;20288;-55
2022/04/08 09:00:07;;;;;;;6.70;1.77;;;;;;;;;;4447821;32;20438;-55
2022/04/08 09:02:34;;;;;;;6.20;2.65;;;;;;;;;;4447448;32;20245;-54
2022/04/08 09:05:00;;;;;;;4.82;1.98;;;;;;;;;;4452223;32;20258;-55
2022/04/08 09:07:27;;;;;;;6.30;2.25;;;;;;;;;;4457583;32;20355;-57
2022/04/08 09:09:55;;;;;;;3.75;1.73;;;;;;;;;;4459033;32;20620;-55
2022/04/08 09:12:23;;;;;;;2.22;1.33;;;;;;;;;;4446523;32;20232;-55
2022/04/08 09:14:50;;;;;;;1.70;1.17;;;;;;;;;;4446645;32;20693;-56
2022/04/08 09:17:18;;;;;;;2.00;0.95;;;;;;;;;;4447445;32;20221;-54
2022/04/08 09:19:46;;;;;;;3.05;1.20;;;;;;;;;;4449282;32;20232;-55
2022/04/08 09:22:12;;;;;;;2.80;1.20;;;;;;;;;;4462735;32;20208;-54
2022/04/08 09:24:37;;;;;;;4.78;1.08;;;;;;;;;;4447387;32;20303;-54
2022/04/08 09:27:03;;;;;;;3.17;1.35;;;;;;;;;;4447528;32;20196;-58
2022/04/08 09:29:28;;;;;;;2.10;1.70;;;;;;;;;;4447572;32;20361;-56
2022/04/08 09:31:57;;;;;;;4.43;1.33;;;;;;;;;;4447545;32;20653;-55
2022/04/08 09:34:23;;;;;;;2.50;1.37;;;;;;;;;;4447851;32;20299;-54
2022/04/08 09:36:49;;;;;;;1.52;1.12;;;;;;;;;;4447191;32;20694;-54
2022/04/08 09:39:14;;;;;;;6.60;1.62;;;;;;;;;;4447221;32;20673;-54
2022/04/08 09:41:42;;;;;;;2.90;1.60;;;;;;;;;;4446271;32;20236;-55
2022/04/08 09:44:10;;;;;;;7.40;2.08;;;;;;;;;;4460770;32;20254;-55
2022/04/08 09:46:36;;;;;;;2.55;1.17;;;;;;;;;;4461858;32;20233;-55
2022/04/08 09:49:06;;;;;;;2.92;1.20;;;;;;;;;;4462030;32;20240;-55
2022/04/08 09:51:39;;;;;;;8.18;1.80;;;;;;;;;;4457958;32;20838;-54
2022/04/08 09:54:08;;;;;;;1.85;1.17;;;;;;;;;;4446999;32;20228;-55
2022/04/08 09:56:36;;;;;;;4.78;1.27;;;;;;;;;;4447245;32;20228;-54
2022/04/08 09:59:15;;;;;;;3.67;1.20;;;;;;;;;;4446287;32;20779;-54
2022/04/08 10:01:45;;;;;;;4.12;0.93;;;;;;;;;;4446943;32;20275;-55
2022/04/08 10:04:11;;;;;;;3.08;1.15;;;;;;;;;;4455541;32;20231;-54
2022/04/08 10:06:38;;;;;;;0.95;0.80;;;;;;;;;;4446320;32;20354;-54
2022/04/08 10:09:06;;;;;;;1.62;1.00;;;;;;;;;;4440630;32;20232;-54
2022/04/08 10:12:02;;;;;;;7.78;1.55;;;;;;;;;;4446967;32;20208;-54
2022/04/08 10:14:28;;;;;;;3.03;1.00;;;;;;;;;;4446851;32;20224;-55
2022/04/08 10:16:55;;;;;;;2.42;1.10;;;;;;;;;;4454461;32;20668;-55
2022/04/08 10:19:24;;;;;;;2.97;1.48;;;;;;;;;;4461529;32;20232;-54
2022/04/08 10:21:53;;;;;;;5.30;0.95;;;;;;;;;;4461175;32;20256;-54
2022/04/08 10:24:27;;;;;;;3.22;1.17;;;;;;;;;;4448880;32;20438;-55
2022/04/08 10:27:11;;;;;;;2.85;1.17;;;;;;;;;;4447265;32;20209;-55
2022/04/08 10:29:37;;;;;;;9.43;1.65;;;;;;;;;;4446889;32;20344;-54
2022/04/08 10:32:14;;;;;;;1.50;0.88;;;;;;;;;;4446855;32;20204;-55
2022/04/08 10:34:40;;;;;;;0.73;0.70;;;;;;;;;;4462567;32;20227;-55
2022/04/08 10:37:24;;;;;;;2.80;1.10;;;;;;;;;;4463211;32;20203;-56
2022/04/08 10:39:56;;;;;;;1.45;1.12;;;;;;;;;;4462851;32;20320;-55
2022/04/08 10:42:22;;;;;;;6.62;1.45;;;;;;;;;;4448749;32;20609;-55
2022/04/08 10:44:48;;;;;;;2.70;1.08;;;;;;;;;;4449518;32;20237;-56
2022/04/08 10:47:15;;;;;;;1.27;0.68;;;;;;;;;;4451279;32;20292;-55
2022/04/08 10:50:04;;;;;;;1.02;0.82;;;;;;;;;;4449968;32;20378;-55
2022/04/08 10:52:31;;;;;;;2.75;1.40;;;;;;;;;;4448181;32;20221;-54
2022/04/08 10:55:10;;;;;;;2.05;0.98;;;;;;;;;;4450037;32;20212;-53
2022/04/08 10:57:45;;;;;;;2.33;1.20;;;;;;;;;;4449542;32;20260;-53
2022/04/08 11:00:13;;;;;;;1.10;1.00;;;;;;;;;;4449626;32;20275;-53
2022/04/08 11:02:40;;;;;;;3.50;0.98;;;;;;;;;;4449270;32;20570;-55
2022/04/08 11:05:08;;;;;;;1.45;1.05;;;;;;;;;;4453750;32;20662;-55
2022/04/08 11:07:34;;;;;;;3.97;1.10;;;;;;;;;;4460596;32;20247;-55
2022/04/08 11:10:02;;;;;;;1.95;0.90;;;;;;;;;;4464873;32;20317;-55
2022/04/08 11:12:30;;;;;;;3.62;1.17;;;;;;;;;;4454777;32;20699;-55
2022/04/08 11:14:58;;;;;;;2.15;1.17;;;;;;;;;;4449258;32;20213;-55
2022/04/08 11:17:24;;;;;;;3.17;1.40;;;;;;;;;;4449179;32;20322;-55
2022/04/08 11:19:50;;;;;;;6.25;1.27;;;;;;;;;;4450825;32;20283;-55
2022/04/08 11:22:16;;;;;;;1.48;0.90;;;;;;;;;;4446753;32;20293;-54
2022/04/08 11:24:41;;;;;;;4.00;1.20;;;;;;;;;;4450031;32;20299;-55
2022/04/08 11:27:08;;;;;;;1.75;1.40;;;;;;;;;;4451210;32;20304;-55
2022/04/08 11:29:36;;;;;;;2.60;1.02;;;;;;;;;;4454088;32;20245;-54
2022/04/08 11:32:31;;;;;;;1.58;1.10;;;;;;;;;;4447603;32;20380;-54
2022/04/08 11:34:56;;;;;;;1.58;1.20;;;;;;;;;;4452221;32;20597;-54
2022/04/08 11:37:26;;;;;;;2.15;1.02;;;;;;;;;;4450248;32;20352;-55
2022/04/08 11:39:58;;;;;;;1.33;1.05;;;;;;;;;;4451718;32;20331;-55
2022/04/08 11:42:25;;;;;;;1.65;1.00;;;;;;;;;;4455205;32;20282;-54
2022/04/08 11:44:51;;;;;;;5.65;2.37;;;;;;;;;;4457916;32;20248;-55
2022/04/08 11:47:17;;;;;;;27.77;15.40;;;;;;;;;;4454308;32;20280;-53
2022/04/08 11:49:43;;;;;;;67.07;37.20;;;;;;;;;;4449106;32;20366;-55
2022/04/08 11:52:09;;;;;;;13.95;6.90;;;;;;;;;;4456479;32;20212;-53
2022/04/08 11:54:39;;;;;;;17.05;7.12;;;;;;;;;;4452130;32;20631;-54
2022/04/08 11:57:06;;;;;;;9.98;6.12;;;;;;;;;;4453708;32;20624;-54
2022/04/08 11:59:32;;;;;;;5.82;3.05;;;;;;;;;;4454265;32;20321;-55
2022/04/08 12:01:59;;;;;;;3.08;1.62;;;;;;;;;;4456421;32;20331;-55
2022/04/08 12:04:25;;;;;;;11.68;2.72;;;;;;;;;;4453369;32;20257;-54
2022/04/08 12:06:51;;;;;;;2.78;1.62;;;;;;;;;;4446388;32;20224;-54
2022/04/08 12:09:20;;;;;;;6.82;3.35;;;;;;;;;;4454393;32;20232;-54
2022/04/08 12:11:47;;;;;;;7.50;3.10;;;;;;;;;;4454212;32;20518;-54
2022/04/08 12:14:14;;;;;;;2.72;2.20;;;;;;;;;;4457154;32;20406;-54
2022/04/08 12:16:42;;;;;;;5.40;2.90;;;;;;;;;;4455159;32;20250;-54
2022/04/08 12:19:09;;;;;;;2.30;1.73;;;;;;;;;;4450234;32;20559;-54
2022/04/08 12:21:39;;;;;;;3.12;2.20;;;;;;;;;;4452041;32;20641;-54
2022/04/08 12:24:07;;;;;;;8.57;2.33;;;;;;;;;;4454956;32;20294;-54
2022/04/08 12:26:37;;;;;;;6.50;1.90;;;;;;;;;;4454803;32;20283;-55
2022/04/08 12:29:14;;;;;;;2.65;1.75;;;;;;;;;;4449623;32;20724;-54
2022/04/08 12:32:04;;;;;;;1.37;1.02;;;;;;;;;;4457447;32;20208;-54
2022/04/08 12:34:29;;;;;;;6.60;2.50;;;;;;;;;;4455656;32;20287;-54
2022/04/08 12:36:54;;;;;;;13.82;1.50;;;;;;;;;;4450619;32;20220;-55
2022/04/08 12:39:20;;;;;;;4.78;1.98;;;;;;;;;;4445904;32;20304;-54
2022/04/08 12:41:47;;;;;;;4.10;2.53;;;;;;;;;;4454266;32;20238;-54
2022/04/08 12:44:14;;;;;;;5.75;2.10;;;;;;;;;;4459526;32;20337;-54
2022/04/08 12:46:39;;;;;;;4.18;1.40;;;;;;;;;;4456672;32;20507;-55
2022/04/08 12:49:06;;;;;;;3.58;1.65;;;;;;;;;;4455171;32;20279;-54
2022/04/08 12:51:32;;;;;;;2.92;1.87;;;;;;;;;;4450754;32;20978;-54
2022/04/08 12:53:58;;;;;;;1.40;1.17;;;;;;;;;;4452082;32;20464;-56
2022/04/08 12:56:27;;;;;;;2.42;1.52;;;;;;;;;;4443625;32;20371;-53
2022/04/08 12:58:53;;;;;;;5.53;1.37;;;;;;;;;;4449408;32;20248;-54
2022/04/08 13:01:19;;;;;;;10.85;5.40;;;;;;;;;;4455266;32;20337;-54
2022/04/08 13:03:45;;;;;;;3.00;1.45;;;;;;;;;;4446514;32;20625;-53
2022/04/08 13:06:11;;;;;;;3.55;2.03;;;;;;;;;;4449545;32;20317;-53
2022/04/08 13:08:36;;;;;;;2.10;1.52;;;;;;;;;;4454229;32;20255;-53
2022/04/08 13:11:02;;;;;;;12.23;1.40;;;;;;;;;;4451770;32;20332;-53
2022/04/08 13:13:28;;;;;;;5.50;3.83;;;;;;;;;;4448140;32;20338;-54
2022/04/08 13:15:53;;;;;;;3.00;2.33;;;;;;;;;;4457135;32;20758;-53
2022/04/08 13:18:19;;;;;;;1.67;1.25;;;;;;;;;;4453310;32;20247;-53
2022/04/08 13:20:44;;;;;;;4.47;1.10;;;;;;;;;;4454087;32;20287;-55
2022/04/08 13:23:10;;;;;;;10.63;6.55;;;;;;;;;;4457273;32;20243;-53
2022/04/08 13:25:35;;;;;;;6.97;4.28;;;;;;;;;;4453416;32;20727;-55
2022/04/08 13:28:01;;;;;;;4.47;3.05;;;;;;;;;;4450820;32;20352;-53
2022/04/08 13:30:26;;;;;;;5.53;2.15;;;;;;;;;;4447238;32;20429;-53
2022/04/08 13:32:52;;;;;;;2.83;1.35;;;;;;;;;;4453284;32;20462;-54
2022/04/08 13:35:18;;;;;;;2.83;1.20;;;;;;;;;;4455710;32;20488;-54
2022/04/08 13:37:43;;;;;;;1.15;1.05;;;;;;;;;;4457564;32;20247;-53
2022/04/08 13:40:10;;;;;;;2.15;1.17;;;;;;;;;;4445394;32;20347;-55
2022/04/08 13:42:35;;;;;;;7.20;1.30;;;;;;;;;;4451088;32;20304;-54
2022/04/08 13:45:01;;;;;;;8.73;3.58;;;;;;;;;;4456524;32;20327;-53
2022/04/08 13:47:26;;;;;;;5.07;1.50;;;;;;;;;;4451777;32;20228;-54
2022/04/08 13:49:52;;;;;;;4.93;1.50;;;;;;;;;;4449536;32;20196;-53
2022/04/08 13:52:17;;;;;;;3.92;2.03;;;;;;;;;;4448977;32;20333;-53
2022/04/08 13:54:43;;;;;;;5.22;3.10;;;;;;;;;;4456638;32;20395;-54
2022/04/08 13:57:08;;;;;;;3.72;2.17;;;;;;;;;;4462904;32;20234;-54
2022/04/08 13:59:34;;;;;;;1.08;0.95;;;;;;;;;;4462439;32;20295;-55
2022/04/08 14:02:00;;;;;;;5.37;1.00;;;;;;;;;;4462609;32;20211;-53
2022/04/08 14:04:25;;;;;;;13.50;1.80;;;;;;;;;;4452371;32;20859;-53
2022/04/08 14:06:51;;;;;;;4.22;1.35;;;;;;;;;;4446635;32;20299;-53
2022/04/08 14:09:16;;;;;;;5.68;0.98;;;;;;;;;;4447183;32;20233;-54
2022/04/08 14:11:42;;;;;;;7.20;2.53;;;;;;;;;;4448912;32;20447;-54
2022/04/08 14:14:08;;;;;;;5.68;2.55;;;;;;;;;;4450297;32;20260;-53
2022/04/08 14:16:33;;;;;;;9.70;1.00;;;;;;;;;;4450076;32;20655;-53
2022/04/08 14:18:58;;;;;;;2.90;2.00;;;;;;;;;;4450322;32;20258;-54
2022/04/08 14:21:24;;;;;;;3.97;1.65;;;;;;;;;;4450295;32;20223;-54
2022/04/08 14:23:50;;;;;;;2.55;0.88;;;;;;;;;;4460871;32;20228;-54
2022/04/08 14:26:16;;;;;;;2.60;1.17;;;;;;;;;;4465549;32;20282;-53
2022/04/08 14:28:41;;;;;;;1.20;0.75;;;;;;;;;;4465398;32;20364;-52
2022/04/08 14:31:07;;;;;;;0.98;0.65;;;;;;;;;;4465162;32;20830;-52
2022/04/08 14:33:32;;;;;;;2.55;0.70;;;;;;;;;;4450888;32;20252;-53
2022/04/08 14:35:58;;;;;;;1.75;1.00;;;;;;;;;;4461287;32;20235;-53